sensor_id;sensor_type;location;lat;lon;timestamp;P1;durP1;ratioP1;P2;durP2;ratioP2
16593;SDS011;8410;52.532;13.336;2022-08-24T00:01:55;4.95;;;3.17;;
16593;SDS011;8410;52.532;13.336;2022-08-24T00:04:24;5.38;;;3.75;;
16593;SDS011;8410;52.532;13.336;2022-08-24T00:06:54;3.87;;;3.10;;
16593;SDS011;8410;52.532;13.336;2022-08-24T00:09:22;5.80;;;3.38;;
16593;SDS011;8410;52.532;13.336;2022-08-24T00:11:50;4.97;;;3.55;;
16593;SDS011;8410;52.532;13.336;2022-08-24T00:14:18;6.95;;;3.40;;
16593;SDS011;8410;52.532;13.336;2022-08-24T00:16:46;4.45;;;3.00;;
16593;SDS011;8410;52.532;13.336;2022-08-24T00:19:14;6.40;;;2.60;;
16593;SDS011;8410;52.532;13.336;2022-08-24T00:21:43;5.70;;;3.28;;
16593;SDS011;8410;52.532;13.336;2022-08-24T00:24:12;6.35;;;3.35;;
16593;SDS011;8410;52.532;13.336;2022-08-24T00:26:40;6.82;;;2.80;;
16593;SDS011;8410;52.532;13.336;2022-08-24T00:29:08;5.53;;;2.60;;
16593;SDS011;8410;52.532;13.336;2022-08-24T00:31:36;5.05;;;3.13;;
16593;SDS011;8410;52.532;13.336;2022-08-24T00:34:04;6.18;;;3.88;;
16593;SDS011;8410;52.532;13.336;2022-08-24T00:36:33;5.88;;;3.40;;
16593;SDS011;8410;52.532;13.336;2022-08-24T00:39:01;6.05;;;3.58;;
16593;SDS011;8410;52.532;13.336;2022-08-24T00:41:32;4.70;;;3.58;;
16593;SDS011;8410;52.532;13.336;2022-08-24T00:44:03;6.22;;;3.63;;
16593;SDS011;8410;52.532;13.336;2022-08-24T00:46:37;7.13;;;3.67;;
16593;SDS011;8410;52.532;13.336;2022-08-24T00:49:12;6.65;;;3.75;;
16593;SDS011;8410;52.532;13.336;2022-08-24T00:51:51;6.15;;;3.95;;
16593;SDS011;8410;52.532;13.336;2022-08-24T00:54:32;6.15;;;3.90;;
16593;SDS011;8410;52.532;13.336;2022-08-24T00:57:14;8.98;;;4.10;;
16593;SDS011;8410;52.532;13.336;2022-08-24T00:59:47;6.50;;;4.03;;
16593;SDS011;8410;52.532;13.336;2022-08-24T01:02:21;7.10;;;4.10;;
16593;SDS011;8410;52.532;13.336;2022-08-24T01:04:54;7.30;;;3.35;;
16593;SDS011;8410;52.532;13.336;2022-08-24T01:07:27;7.60;;;4.25;;
16593;SDS011;8410;52.532;13.336;2022-08-24T01:10:03;7.53;;;3.47;;
16593;SDS011;8410;52.532;13.336;2022-08-24T01:12:37;8.38;;;3.85;;
16593;SDS011;8410;52.532;13.336;2022-08-24T01:15:26;5.63;;;3.97;;
16593;SDS011;8410;52.532;13.336;2022-08-24T01:17:55;7.47;;;3.70;;
16593;SDS011;8410;52.532;13.336;2022-08-24T01:20:42;6.53;;;3.80;;
16593;SDS011;8410;52.532;13.336;2022-08-24T01:23:25;8.10;;;4.60;;
16593;SDS011;8410;52.532;13.336;2022-08-24T01:26:03;8.95;;;3.80;;
16593;SDS011;8410;52.532;13.336;2022-08-24T01:28:33;7.10;;;3.83;;
16593;SDS011;8410;52.532;13.336;2022-08-24T01:31:06;10.32;;;4.57;;
16593;SDS011;8410;52.532;13.336;2022-08-24T01:33:34;7.93;;;4.28;;
16593;SDS011;8410;52.532;13.336;2022-08-24T01:36:03;5.43;;;4.10;;
16593;SDS011;8410;52.532;13.336;2022-08-24T01:38:42;7.15;;;4.50;;
16593;SDS011;8410;52.532;13.336;2022-08-24T01:41:11;7.38;;;4.50;;
16593;SDS011;8410;52.532;13.336;2022-08-24T01:43:39;7.88;;;4.82;;
16593;SDS011;8410;52.532;13.336;2022-08-24T01:46:07;8.80;;;4.53;;
16593;SDS011;8410;52.532;13.336;2022-08-24T01:48:35;7.85;;;4.78;;
16593;SDS011;8410;52.532;13.336;2022-08-24T01:51:03;6.68;;;3.42;;
16593;SDS011;8410;52.532;13.336;2022-08-24T01:53:31;9.27;;;5.40;;
16593;SDS011;8410;52.532;13.336;2022-08-24T01:56:01;5.07;;;3.83;;
16593;SDS011;8410;52.532;13.336;2022-08-24T01:58:29;7.30;;;4.93;;
16593;SDS011;8410;52.532;13.336;2022-08-24T02:00:57;6.90;;;5.47;;
16593;SDS011;8410;52.532;13.336;2022-08-24T02:03:26;7.67;;;5.83;;
16593;SDS011;8410;52.532;13.336;2022-08-24T02:05:55;5.50;;;3.45;;
16593;SDS011;8410;52.532;13.336;2022-08-24T02:08:24;10.40;;;6.20;;
16593;SDS011;8410;52.532;13.336;2022-08-24T02:10:52;6.10;;;5.50;;
16593;SDS011;8410;52.532;13.336;2022-08-24T02:13:23;9.85;;;7.95;;
16593;SDS011;8410;52.532;13.336;2022-08-24T02:15:53;8.23;;;4.40;;
16593;SDS011;8410;52.532;13.336;2022-08-24T02:18:21;12.02;;;8.55;;
16593;SDS011;8410;52.532;13.336;2022-08-24T02:20:49;13.00;;;8.00;;
16593;SDS011;8410;52.532;13.336;2022-08-24T02:23:18;11.45;;;8.88;;
16593;SDS011;8410;52.532;13.336;2022-08-24T02:25:47;16.83;;;12.70;;
16593;SDS011;8410;52.532;13.336;2022-08-24T02:28:15;19.93;;;14.50;;
16593;SDS011;8410;52.532;13.336;2022-08-24T02:30:46;19.10;;;12.90;;
16593;SDS011;8410;52.532;13.336;2022-08-24T02:33:15;22.27;;;17.30;;
16593;SDS011;8410;52.532;13.336;2022-08-24T02:35:43;19.83;;;14.07;;
16593;SDS011;8410;52.532;13.336;2022-08-24T02:38:11;23.70;;;17.00;;
16593;SDS011;8410;52.532;13.336;2022-08-24T02:40:39;25.53;;;18.17;;
16593;SDS011;8410;52.532;13.336;2022-08-24T02:43:06;24.17;;;17.77;;
16593;SDS011;8410;52.532;13.336;2022-08-24T02:45:36;24.80;;;18.47;;
16593;SDS011;8410;52.532;13.336;2022-08-24T02:48:06;21.53;;;16.40;;
16593;SDS011;8410;52.532;13.336;2022-08-24T02:50:36;21.13;;;16.70;;
16593;SDS011;8410;52.532;13.336;2022-08-24T02:53:05;22.00;;;17.13;;
16593;SDS011;8410;52.532;13.336;2022-08-24T02:55:34;20.80;;;18.20;;
16593;SDS011;8410;52.532;13.336;2022-08-24T02:58:04;26.67;;;18.40;;
16593;SDS011;8410;52.532;13.336;2022-08-24T03:00:32;24.90;;;19.10;;
16593;SDS011;8410;52.532;13.336;2022-08-24T03:03:01;22.13;;;18.10;;
16593;SDS011;8410;52.532;13.336;2022-08-24T03:05:31;23.17;;;18.53;;
16593;SDS011;8410;52.532;13.336;2022-08-24T03:07:59;22.17;;;18.63;;
16593;SDS011;8410;52.532;13.336;2022-08-24T03:10:28;18.50;;;16.67;;
16593;SDS011;8410;52.532;13.336;2022-08-24T03:12:57;20.10;;;17.53;;
16593;SDS011;8410;52.532;13.336;2022-08-24T03:15:26;19.43;;;17.00;;
16593;SDS011;8410;52.532;13.336;2022-08-24T03:17:55;21.50;;;17.67;;
16593;SDS011;8410;52.532;13.336;2022-08-24T03:20:23;19.90;;;16.87;;
16593;SDS011;8410;52.532;13.336;2022-08-24T03:22:53;11.73;;;9.70;;
16593;SDS011;8410;52.532;13.336;2022-08-24T03:25:21;17.48;;;11.25;;
16593;SDS011;8410;52.532;13.336;2022-08-24T03:27:51;16.85;;;10.93;;
16593;SDS011;8410;52.532;13.336;2022-08-24T03:30:21;14.57;;;12.10;;
16593;SDS011;8410;52.532;13.336;2022-08-24T03:32:50;13.95;;;10.45;;
16593;SDS011;8410;52.532;13.336;2022-08-24T03:35:18;13.68;;;8.50;;
16593;SDS011;8410;52.532;13.336;2022-08-24T03:37:47;10.93;;;9.70;;
16593;SDS011;8410;52.532;13.336;2022-08-24T03:40:17;14.68;;;11.05;;
16593;SDS011;8410;52.532;13.336;2022-08-24T03:42:50;12.43;;;9.23;;
16593;SDS011;8410;52.532;13.336;2022-08-24T03:45:19;10.65;;;7.03;;
16593;SDS011;8410;52.532;13.336;2022-08-24T03:47:48;11.88;;;9.07;;
16593;SDS011;8410;52.532;13.336;2022-08-24T03:50:17;10.82;;;9.73;;
16593;SDS011;8410;52.532;13.336;2022-08-24T03:52:46;13.82;;;9.20;;
16593;SDS011;8410;52.532;13.336;2022-08-24T03:55:15;17.40;;;11.27;;
16593;SDS011;8410;52.532;13.336;2022-08-24T03:57:44;22.52;;;14.25;;
16593;SDS011;8410;52.532;13.336;2022-08-24T04:00:13;16.13;;;12.98;;
16593;SDS011;8410;52.532;13.336;2022-08-24T04:02:42;12.52;;;8.93;;
16593;SDS011;8410;52.532;13.336;2022-08-24T04:05:10;12.35;;;7.95;;
16593;SDS011;8410;52.532;13.336;2022-08-24T04:07:39;11.57;;;9.40;;
16593;SDS011;8410;52.532;13.336;2022-08-24T04:10:07;13.48;;;9.02;;
16593;SDS011;8410;52.532;13.336;2022-08-24T04:12:40;12.38;;;8.93;;
16593;SDS011;8410;52.532;13.336;2022-08-24T04:15:09;13.18;;;9.80;;
16593;SDS011;8410;52.532;13.336;2022-08-24T04:17:38;8.75;;;7.03;;
16593;SDS011;8410;52.532;13.336;2022-08-24T04:20:06;12.15;;;7.20;;
16593;SDS011;8410;52.532;13.336;2022-08-24T04:22:36;8.85;;;7.65;;
16593;SDS011;8410;52.532;13.336;2022-08-24T04:25:04;13.38;;;7.70;;
16593;SDS011;8410;52.532;13.336;2022-08-24T04:27:34;11.82;;;8.68;;
16593;SDS011;8410;52.532;13.336;2022-08-24T04:30:05;10.13;;;7.57;;
16593;SDS011;8410;52.532;13.336;2022-08-24T04:32:39;9.83;;;8.23;;
16593;SDS011;8410;52.532;13.336;2022-08-24T04:35:07;12.40;;;8.00;;
16593;SDS011;8410;52.532;13.336;2022-08-24T04:37:36;12.32;;;7.20;;
16593;SDS011;8410;52.532;13.336;2022-08-24T04:40:04;14.27;;;7.87;;
16593;SDS011;8410;52.532;13.336;2022-08-24T04:42:35;8.73;;;7.23;;
16593;SDS011;8410;52.532;13.336;2022-08-24T04:45:06;9.13;;;6.50;;
16593;SDS011;8410;52.532;13.336;2022-08-24T04:47:35;5.93;;;5.37;;
16593;SDS011;8410;52.532;13.336;2022-08-24T04:50:03;8.15;;;5.97;;
16593;SDS011;8410;52.532;13.336;2022-08-24T04:52:32;11.77;;;5.80;;
16593;SDS011;8410;52.532;13.336;2022-08-24T04:55:02;7.80;;;5.80;;
16593;SDS011;8410;52.532;13.336;2022-08-24T04:57:33;11.40;;;7.63;;
16593;SDS011;8410;52.532;13.336;2022-08-24T05:00:02;9.93;;;7.18;;
16593;SDS011;8410;52.532;13.336;2022-08-24T05:02:35;7.40;;;6.70;;
16593;SDS011;8410;52.532;13.336;2022-08-24T05:05:10;10.05;;;7.35;;
16593;SDS011;8410;52.532;13.336;2022-08-24T05:07:38;7.93;;;7.22;;
16593;SDS011;8410;52.532;13.336;2022-08-24T05:10:07;11.02;;;8.10;;
16593;SDS011;8410;52.532;13.336;2022-08-24T05:12:36;9.55;;;8.10;;
16593;SDS011;8410;52.532;13.336;2022-08-24T05:15:10;9.60;;;8.47;;
16593;SDS011;8410;52.532;13.336;2022-08-24T05:17:39;14.13;;;9.30;;
16593;SDS011;8410;52.532;13.336;2022-08-24T05:20:15;10.45;;;8.63;;
16593;SDS011;8410;52.532;13.336;2022-08-24T05:22:43;14.73;;;8.90;;
16593;SDS011;8410;52.532;13.336;2022-08-24T05:25:11;13.68;;;9.90;;
16593;SDS011;8410;52.532;13.336;2022-08-24T05:27:39;9.98;;;8.35;;
16593;SDS011;8410;52.532;13.336;2022-08-24T05:30:08;12.80;;;10.30;;
16593;SDS011;8410;52.532;13.336;2022-08-24T05:32:39;13.68;;;9.95;;
16593;SDS011;8410;52.532;13.336;2022-08-24T05:35:07;13.18;;;10.85;;
16593;SDS011;8410;52.532;13.336;2022-08-24T05:37:36;15.77;;;12.07;;
16593;SDS011;8410;52.532;13.336;2022-08-24T05:40:06;16.80;;;14.50;;
16593;SDS011;8410;52.532;13.336;2022-08-24T05:42:37;17.45;;;13.50;;
16593;SDS011;8410;52.532;13.336;2022-08-24T05:45:06;20.98;;;13.43;;
16593;SDS011;8410;52.532;13.336;2022-08-24T05:47:37;16.75;;;10.60;;
16593;SDS011;8410;52.532;13.336;2022-08-24T05:50:05;15.80;;;12.82;;
16593;SDS011;8410;52.532;13.336;2022-08-24T05:52:34;19.13;;;13.65;;
16593;SDS011;8410;52.532;13.336;2022-08-24T05:55:02;17.17;;;13.48;;
16593;SDS011;8410;52.532;13.336;2022-08-24T05:57:32;17.98;;;13.57;;
16593;SDS011;8410;52.532;13.336;2022-08-24T06:00:03;16.52;;;13.27;;
16593;SDS011;8410;52.532;13.336;2022-08-24T06:02:34;18.58;;;14.10;;
16593;SDS011;8410;52.532;13.336;2022-08-24T06:05:04;16.20;;;13.98;;
16593;SDS011;8410;52.532;13.336;2022-08-24T06:07:33;16.23;;;13.25;;
16593;SDS011;8410;52.532;13.336;2022-08-24T06:10:01;18.27;;;14.15;;
16593;SDS011;8410;52.532;13.336;2022-08-24T06:12:49;16.80;;;13.45;;
16593;SDS011;8410;52.532;13.336;2022-08-24T06:15:17;17.50;;;14.20;;
16593;SDS011;8410;52.532;13.336;2022-08-24T06:17:48;14.73;;;13.02;;
16593;SDS011;8410;52.532;13.336;2022-08-24T06:20:16;9.70;;;7.70;;
16593;SDS011;8410;52.532;13.336;2022-08-24T06:22:44;22.63;;;14.75;;
16593;SDS011;8410;52.532;13.336;2022-08-24T06:25:12;23.63;;;16.08;;
16593;SDS011;8410;52.532;13.336;2022-08-24T06:27:57;27.10;;;15.23;;
16593;SDS011;8410;52.532;13.336;2022-08-24T06:30:25;17.60;;;13.25;;
16593;SDS011;8410;52.532;13.336;2022-08-24T06:32:58;17.60;;;12.45;;
16593;SDS011;8410;52.532;13.336;2022-08-24T06:35:27;13.38;;;12.10;;
16593;SDS011;8410;52.532;13.336;2022-08-24T06:37:55;10.63;;;9.27;;
16593;SDS011;8410;52.532;13.336;2022-08-24T06:40:25;13.38;;;11.07;;
16593;SDS011;8410;52.532;13.336;2022-08-24T06:42:53;18.98;;;11.40;;
16593;SDS011;8410;52.532;13.336;2022-08-24T06:45:21;14.88;;;13.40;;
16593;SDS011;8410;52.532;13.336;2022-08-24T06:47:49;23.08;;;19.83;;
16593;SDS011;8410;52.532;13.336;2022-08-24T06:50:19;22.30;;;18.63;;
16593;SDS011;8410;52.532;13.336;2022-08-24T06:52:49;22.92;;;18.83;;
16593;SDS011;8410;52.532;13.336;2022-08-24T06:55:17;25.42;;;19.95;;
16593;SDS011;8410;52.532;13.336;2022-08-24T06:57:45;26.75;;;17.85;;
16593;SDS011;8410;52.532;13.336;2022-08-24T07:00:18;29.50;;;18.20;;
16593;SDS011;8410;52.532;13.336;2022-08-24T07:02:47;25.33;;;18.25;;
16593;SDS011;8410;52.532;13.336;2022-08-24T07:05:15;29.52;;;20.10;;
16593;SDS011;8410;52.532;13.336;2022-08-24T07:07:45;25.38;;;19.25;;
16593;SDS011;8410;52.532;13.336;2022-08-24T07:10:13;21.65;;;16.85;;
16593;SDS011;8410;52.532;13.336;2022-08-24T07:12:41;22.67;;;16.27;;
16593;SDS011;8410;52.532;13.336;2022-08-24T07:15:12;21.67;;;16.60;;
16593;SDS011;8410;52.532;13.336;2022-08-24T07:17:41;18.40;;;14.32;;
16593;SDS011;8410;52.532;13.336;2022-08-24T07:20:10;16.67;;;13.43;;
16593;SDS011;8410;52.532;13.336;2022-08-24T07:22:39;12.77;;;10.55;;
16593;SDS011;8410;52.532;13.336;2022-08-24T07:25:09;15.20;;;12.80;;
16593;SDS011;8410;52.532;13.336;2022-08-24T07:27:39;19.65;;;12.98;;
16593;SDS011;8410;52.532;13.336;2022-08-24T07:30:07;21.83;;;12.95;;
16593;SDS011;8410;52.532;13.336;2022-08-24T07:32:54;17.42;;;12.45;;
16593;SDS011;8410;52.532;13.336;2022-08-24T07:35:23;21.17;;;13.90;;
16593;SDS011;8410;52.532;13.336;2022-08-24T07:37:52;21.33;;;14.95;;
16593;SDS011;8410;52.532;13.336;2022-08-24T07:40:23;18.30;;;13.68;;
16593;SDS011;8410;52.532;13.336;2022-08-24T07:42:53;18.88;;;14.27;;
16593;SDS011;8410;52.532;13.336;2022-08-24T07:45:24;17.27;;;13.38;;
16593;SDS011;8410;52.532;13.336;2022-08-24T07:47:53;16.30;;;13.55;;
16593;SDS011;8410;52.532;13.336;2022-08-24T07:50:21;19.60;;;13.60;;
16593;SDS011;8410;52.532;13.336;2022-08-24T07:52:49;17.25;;;14.18;;
16593;SDS011;8410;52.532;13.336;2022-08-24T07:55:17;17.15;;;13.38;;
16593;SDS011;8410;52.532;13.336;2022-08-24T07:57:47;17.38;;;13.02;;
16593;SDS011;8410;52.532;13.336;2022-08-24T08:00:15;14.30;;;12.45;;
16593;SDS011;8410;52.532;13.336;2022-08-24T08:02:46;16.95;;;14.30;;
16593;SDS011;8410;52.532;13.336;2022-08-24T08:05:16;15.82;;;12.43;;
16593;SDS011;8410;52.532;13.336;2022-08-24T08:07:47;14.43;;;12.75;;
16593;SDS011;8410;52.532;13.336;2022-08-24T08:10:17;22.90;;;14.68;;
16593;SDS011;8410;52.532;13.336;2022-08-24T08:12:48;18.30;;;13.15;;
16593;SDS011;8410;52.532;13.336;2022-08-24T08:15:16;15.48;;;13.75;;
16593;SDS011;8410;52.532;13.336;2022-08-24T08:17:44;19.23;;;15.00;;
16593;SDS011;8410;52.532;13.336;2022-08-24T08:20:20;18.58;;;14.93;;
16593;SDS011;8410;52.532;13.336;2022-08-24T08:22:49;16.95;;;14.00;;
16593;SDS011;8410;52.532;13.336;2022-08-24T08:25:35;15.38;;;13.07;;
16593;SDS011;8410;52.532;13.336;2022-08-24T08:28:05;16.30;;;13.50;;
16593;SDS011;8410;52.532;13.336;2022-08-24T08:30:51;15.40;;;13.30;;
16593;SDS011;8410;52.532;13.336;2022-08-24T08:33:19;18.00;;;13.30;;
16593;SDS011;8410;52.532;13.336;2022-08-24T08:35:47;18.30;;;14.35;;
16593;SDS011;8410;52.532;13.336;2022-08-24T08:38:17;16.80;;;13.07;;
16593;SDS011;8410;52.532;13.336;2022-08-24T08:40:49;16.73;;;13.20;;
16593;SDS011;8410;52.532;13.336;2022-08-24T08:43:41;16.73;;;12.88;;
16593;SDS011;8410;52.532;13.336;2022-08-24T08:46:16;17.33;;;12.48;;
16593;SDS011;8410;52.532;13.336;2022-08-24T08:49:13;13.63;;;12.32;;
16593;SDS011;8410;52.532;13.336;2022-08-24T08:52:09;15.02;;;12.23;;
16593;SDS011;8410;52.532;13.336;2022-08-24T08:55:22;13.73;;;11.90;;
16593;SDS011;8410;52.532;13.336;2022-08-24T08:57:59;14.32;;;11.70;;
16593;SDS011;8410;52.532;13.336;2022-08-24T09:00:47;15.98;;;12.77;;
16593;SDS011;8410;52.532;13.336;2022-08-24T09:03:39;13.75;;;12.00;;
16593;SDS011;8410;52.532;13.336;2022-08-24T09:06:50;15.63;;;12.57;;
16593;SDS011;8410;52.532;13.336;2022-08-24T09:09:46;15.57;;;12.05;;
16593;SDS011;8410;52.532;13.336;2022-08-24T09:12:33;15.00;;;13.07;;
16593;SDS011;8410;52.532;13.336;2022-08-24T09:15:36;13.43;;;11.40;;
16593;SDS011;8410;52.532;13.336;2022-08-24T09:18:43;16.65;;;13.20;;
16593;SDS011;8410;52.532;13.336;2022-08-24T09:21:29;19.10;;;12.85;;
16593;SDS011;8410;52.532;13.336;2022-08-24T09:24:22;19.65;;;15.18;;
16593;SDS011;8410;52.532;13.336;2022-08-24T09:27:11;22.05;;;16.33;;
16593;SDS011;8410;52.532;13.336;2022-08-24T09:29:57;19.92;;;15.85;;
16593;SDS011;8410;52.532;13.336;2022-08-24T09:32:49;24.13;;;18.08;;
16593;SDS011;8410;52.532;13.336;2022-08-24T09:35:33;20.13;;;17.38;;
16593;SDS011;8410;52.532;13.336;2022-08-24T09:38:22;22.38;;;19.23;;
16593;SDS011;8410;52.532;13.336;2022-08-24T09:41:07;19.65;;;16.88;;
16593;SDS011;8410;52.532;13.336;2022-08-24T09:44:15;23.75;;;16.98;;
16593;SDS011;8410;52.532;13.336;2022-08-24T09:51:14;20.92;;;16.63;;
16593;SDS011;8410;52.532;13.336;2022-08-24T09:54:35;20.73;;;15.70;;
16593;SDS011;8410;52.532;13.336;2022-08-24T09:57:38;21.55;;;16.23;;
16593;SDS011;8410;52.532;13.336;2022-08-24T10:00:27;23.75;;;17.48;;
16593;SDS011;8410;52.532;13.336;2022-08-24T10:03:07;21.67;;;16.38;;
16593;SDS011;8410;52.532;13.336;2022-08-24T10:06:07;17.60;;;13.13;;
16593;SDS011;8410;52.532;13.336;2022-08-24T10:08:54;19.60;;;16.95;;
16593;SDS011;8410;52.532;13.336;2022-08-24T10:11:47;18.60;;;13.40;;
16593;SDS011;8410;52.532;13.336;2022-08-24T10:14:30;17.75;;;15.02;;
16593;SDS011;8410;52.532;13.336;2022-08-24T10:17:14;21.77;;;14.73;;
16593;SDS011;8410;52.532;13.336;2022-08-24T10:20:02;16.25;;;14.05;;
16593;SDS011;8410;52.532;13.336;2022-08-24T10:22:57;16.17;;;13.43;;
16593;SDS011;8410;52.532;13.336;2022-08-24T10:25:45;16.15;;;14.45;;
16593;SDS011;8410;52.532;13.336;2022-08-24T10:28:27;17.52;;;14.82;;
16593;SDS011;8410;52.532;13.336;2022-08-24T10:31:11;17.42;;;15.32;;
16593;SDS011;8410;52.532;13.336;2022-08-24T10:33:49;16.88;;;15.15;;
16593;SDS011;8410;52.532;13.336;2022-08-24T10:40:03;16.40;;;14.68;;
16593;SDS011;8410;52.532;13.336;2022-08-24T10:42:55;17.85;;;15.32;;
16593;SDS011;8410;52.532;13.336;2022-08-24T10:46:14;17.92;;;14.70;;
16593;SDS011;8410;52.532;13.336;2022-08-24T10:56:06;16.65;;;12.88;;
16593;SDS011;8410;52.532;13.336;2022-08-24T10:58:44;15.98;;;14.15;;
16593;SDS011;8410;52.532;13.336;2022-08-24T11:01:22;14.85;;;13.30;;
16593;SDS011;8410;52.532;13.336;2022-08-24T11:03:57;15.82;;;13.18;;
16593;SDS011;8410;52.532;13.336;2022-08-24T11:06:31;13.23;;;11.10;;
16593;SDS011;8410;52.532;13.336;2022-08-24T11:09:04;15.50;;;13.43;;
16593;SDS011;8410;52.532;13.336;2022-08-24T11:11:43;15.80;;;13.20;;
16593;SDS011;8410;52.532;13.336;2022-08-24T11:14:22;15.73;;;12.80;;
16593;SDS011;8410;52.532;13.336;2022-08-24T11:17:11;14.10;;;12.68;;
16593;SDS011;8410;52.532;13.336;2022-08-24T11:19:42;12.75;;;11.15;;
16593;SDS011;8410;52.532;13.336;2022-08-24T11:22:23;12.27;;;11.02;;
16593;SDS011;8410;52.532;13.336;2022-08-24T11:25:08;12.75;;;11.38;;
16593;SDS011;8410;52.532;13.336;2022-08-24T11:27:45;11.85;;;10.60;;
16593;SDS011;8410;52.532;13.336;2022-08-24T11:30:21;12.40;;;11.20;;
16593;SDS011;8410;52.532;13.336;2022-08-24T11:32:54;12.77;;;10.90;;
16593;SDS011;8410;52.532;13.336;2022-08-24T11:35:25;11.75;;;10.60;;
16593;SDS011;8410;52.532;13.336;2022-08-24T11:38:08;13.23;;;10.20;;
16593;SDS011;8410;52.532;13.336;2022-08-24T11:40:49;12.27;;;9.52;;
16593;SDS011;8410;52.532;13.336;2022-08-24T11:43:25;13.15;;;10.27;;
16593;SDS011;8410;52.532;13.336;2022-08-24T11:46:07;11.70;;;10.02;;
16593;SDS011;8410;52.532;13.336;2022-08-24T11:48:52;11.20;;;9.40;;
16593;SDS011;8410;52.532;13.336;2022-08-24T11:51:34;12.50;;;10.15;;
16593;SDS011;8410;52.532;13.336;2022-08-24T11:54:15;10.40;;;9.38;;
16593;SDS011;8410;52.532;13.336;2022-08-24T11:57:05;12.18;;;9.32;;
16593;SDS011;8410;52.532;13.336;2022-08-24T11:59:43;12.52;;;9.55;;
16593;SDS011;8410;52.532;13.336;2022-08-24T12:02:22;10.40;;;8.93;;
16593;SDS011;8410;52.532;13.336;2022-08-24T12:05:01;10.88;;;8.95;;
16593;SDS011;8410;52.532;13.336;2022-08-24T12:07:40;10.40;;;9.40;;
16593;SDS011;8410;52.532;13.336;2022-08-24T12:10:23;11.23;;;9.35;;
16593;SDS011;8410;52.532;13.336;2022-08-24T12:13:05;10.68;;;9.50;;
16593;SDS011;8410;52.532;13.336;2022-08-24T12:15:48;11.02;;;8.82;;
16593;SDS011;8410;52.532;13.336;2022-08-24T12:18:26;10.07;;;8.75;;
16593;SDS011;8410;52.532;13.336;2022-08-24T12:21:04;13.40;;;8.52;;
16593;SDS011;8410;52.532;13.336;2022-08-24T12:23:39;9.77;;;8.77;;
16593;SDS011;8410;52.532;13.336;2022-08-24T12:26:12;9.75;;;8.70;;
16593;SDS011;8410;52.532;13.336;2022-08-24T12:28:49;10.07;;;8.98;;
16593;SDS011;8410;52.532;13.336;2022-08-24T12:31:37;13.60;;;8.68;;
16593;SDS011;8410;52.532;13.336;2022-08-24T12:34:15;9.80;;;8.77;;
16593;SDS011;8410;52.532;13.336;2022-08-24T12:36:52;8.75;;;7.95;;
16593;SDS011;8410;52.532;13.336;2022-08-24T12:39:41;11.18;;;8.98;;
16593;SDS011;8410;52.532;13.336;2022-08-24T12:42:18;8.95;;;8.10;;
16593;SDS011;8410;52.532;13.336;2022-08-24T12:44:52;10.38;;;8.93;;
16593;SDS011;8410;52.532;13.336;2022-08-24T12:47:27;10.40;;;8.43;;
16593;SDS011;8410;52.532;13.336;2022-08-24T12:50:03;9.35;;;8.10;;
16593;SDS011;8410;52.532;13.336;2022-08-24T12:52:47;8.90;;;7.82;;
16593;SDS011;8410;52.532;13.336;2022-08-24T12:59:15;10.27;;;8.65;;
16593;SDS011;8410;52.532;13.336;2022-08-24T13:01:56;9.05;;;8.13;;
16593;SDS011;8410;52.532;13.336;2022-08-24T13:04:34;13.10;;;9.02;;
16593;SDS011;8410;52.532;13.336;2022-08-24T13:07:09;11.50;;;8.43;;
16593;SDS011;8410;52.532;13.336;2022-08-24T13:10:03;10.70;;;8.02;;
16593;SDS011;8410;52.532;13.336;2022-08-24T13:15:50;10.57;;;7.55;;
16593;SDS011;8410;52.532;13.336;2022-08-24T13:30:31;7.63;;;6.88;;
16593;SDS011;8410;52.532;13.336;2022-08-24T13:33:33;10.48;;;7.57;;
16593;SDS011;8410;52.532;13.336;2022-08-24T13:36:35;7.60;;;6.85;;
16593;SDS011;8410;52.532;13.336;2022-08-24T13:39:14;8.02;;;7.18;;
16593;SDS011;8410;52.532;13.336;2022-08-24T13:42:07;8.57;;;7.10;;
16593;SDS011;8410;52.532;13.336;2022-08-24T13:44:56;8.65;;;7.75;;
16593;SDS011;8410;52.532;13.336;2022-08-24T13:47:45;13.10;;;8.10;;
16593;SDS011;8410;52.532;13.336;2022-08-24T13:50:35;16.90;;;8.05;;
16593;SDS011;8410;52.532;13.336;2022-08-24T13:53:41;8.18;;;6.47;;
16593;SDS011;8410;52.532;13.336;2022-08-24T13:56:28;10.70;;;7.60;;
16593;SDS011;8410;52.532;13.336;2022-08-24T13:59:16;9.52;;;7.95;;
16593;SDS011;8410;52.532;13.336;2022-08-24T14:02:10;10.68;;;8.15;;
16593;SDS011;8410;52.532;13.336;2022-08-24T14:05:02;14.05;;;9.52;;
16593;SDS011;8410;52.532;13.336;2022-08-24T14:07:53;11.70;;;9.35;;
16593;SDS011;8410;52.532;13.336;2022-08-24T14:10:41;11.55;;;8.77;;
16593;SDS011;8410;52.532;13.336;2022-08-24T14:13:28;11.18;;;10.00;;
16593;SDS011;8410;52.532;13.336;2022-08-24T14:16:24;10.65;;;9.15;;
16593;SDS011;8410;52.532;13.336;2022-08-24T14:19:26;12.63;;;8.88;;
16593;SDS011;8410;52.532;13.336;2022-08-24T14:22:14;15.43;;;9.60;;
16593;SDS011;8410;52.532;13.336;2022-08-24T14:25:00;11.40;;;9.25;;
16593;SDS011;8410;52.532;13.336;2022-08-24T14:27:43;14.02;;;10.20;;
16593;SDS011;8410;52.532;13.336;2022-08-24T14:33:24;11.60;;;10.43;;
16593;SDS011;8410;52.532;13.336;2022-08-24T14:36:07;11.05;;;9.05;;
16593;SDS011;8410;52.532;13.336;2022-08-24T14:38:51;14.15;;;10.60;;
16593;SDS011;8410;52.532;13.336;2022-08-24T14:41:39;12.85;;;10.40;;
16593;SDS011;8410;52.532;13.336;2022-08-24T14:44:23;11.18;;;10.02;;
16593;SDS011;8410;52.532;13.336;2022-08-24T14:47:15;14.18;;;10.07;;
16593;SDS011;8410;52.532;13.336;2022-08-24T14:50:04;14.55;;;10.65;;
16593;SDS011;8410;52.532;13.336;2022-08-24T14:52:42;10.48;;;9.38;;
16593;SDS011;8410;52.532;13.336;2022-08-24T14:55:30;10.45;;;9.43;;
16593;SDS011;8410;52.532;13.336;2022-08-24T14:58:13;9.82;;;8.88;;
16593;SDS011;8410;52.532;13.336;2022-08-24T15:01:09;11.27;;;8.70;;
16593;SDS011;8410;52.532;13.336;2022-08-24T15:04:07;10.85;;;9.20;;
16593;SDS011;8410;52.532;13.336;2022-08-24T15:07:17;12.27;;;10.23;;
16593;SDS011;8410;52.532;13.336;2022-08-24T15:09:52;9.98;;;8.98;;
16593;SDS011;8410;52.532;13.336;2022-08-24T15:12:32;9.88;;;8.60;;
16593;SDS011;8410;52.532;13.336;2022-08-24T15:15:09;11.40;;;8.68;;
16593;SDS011;8410;52.532;13.336;2022-08-24T15:17:52;10.63;;;7.10;;
16593;SDS011;8410;52.532;13.336;2022-08-24T15:20:45;10.30;;;8.65;;
16593;SDS011;8410;52.532;13.336;2022-08-24T15:23:33;9.38;;;7.47;;
16593;SDS011;8410;52.532;13.336;2022-08-24T15:26:17;11.65;;;7.60;;
16593;SDS011;8410;52.532;13.336;2022-08-24T15:29:00;8.23;;;7.43;;
16593;SDS011;8410;52.532;13.336;2022-08-24T15:31:40;8.73;;;7.10;;
16593;SDS011;8410;52.532;13.336;2022-08-24T15:34:09;9.07;;;7.05;;
16593;SDS011;8410;52.532;13.336;2022-08-24T15:36:38;11.02;;;6.50;;
16593;SDS011;8410;52.532;13.336;2022-08-24T15:39:06;7.72;;;6.65;;
16593;SDS011;8410;52.532;13.336;2022-08-24T15:41:37;8.75;;;6.35;;
16593;SDS011;8410;52.532;13.336;2022-08-24T15:44:09;8.15;;;5.90;;
16593;SDS011;8410;52.532;13.336;2022-08-24T15:46:51;8.75;;;5.70;;
16593;SDS011;8410;52.532;13.336;2022-08-24T15:49:25;7.85;;;5.80;;
16593;SDS011;8410;52.532;13.336;2022-08-24T15:51:59;9.77;;;6.18;;
16593;SDS011;8410;52.532;13.336;2022-08-24T15:54:33;10.15;;;6.10;;
16593;SDS011;8410;52.532;13.336;2022-08-24T15:57:09;12.95;;;6.15;;
16593;SDS011;8410;52.532;13.336;2022-08-24T16:00:04;10.10;;;5.50;;
16593;SDS011;8410;52.532;13.336;2022-08-24T16:02:37;8.73;;;5.38;;